Time;durP1;ratioP1;P1;durP2;ratioP2;P2;SDS_P1;SDS_P2;PMS_P1;PMS_P2;Temp;Humidity;BMP_temperature;BMP_pressure;BME280_temperature;BME280_humidity;BME280_pressure;Samples;Min_cycle;Max_cycle;Signal;HPM_P1;HPM_P2
2023/07/31 00:00:00;;;;;;;3.10;1.42;;;;;;;18.02;76.87;98489.28;4119467;28;20258;-49
2023/07/31 00:02:02;;;;;;;4.70;1.45;;;;;;;18.08;77.74;98483.41;4115698;28;20281;-48
2023/07/31 00:04:04;;;;;;;4.40;2.00;;;;;;;17.94;76.75;98476.13;4119562;28;20206;-47
2023/07/31 00:06:06;;;;;;;4.07;1.30;;;;;;;17.96;76.76;98473.88;4126386;28;20305;-48
2023/07/31 00:08:08;;;;;;;4.05;2.03;;;;;;;17.98;76.48;98479.97;4120715;28;20264;-46
2023/07/31 00:10:09;;;;;;;4.25;1.67;;;;;;;17.89;76.76;98477.03;4127508;28;20236;-47
2023/07/31 00:12:11;;;;;;;3.35;1.58;;;;;;;17.94;76.66;98476.97;4125792;28;20270;-48
2023/07/31 00:14:13;;;;;;;3.70;1.60;;;;;;;17.95;76.94;98466.69;4119013;28;20220;-46
2023/07/31 00:16:16;;;;;;;5.00;1.55;;;;;;;17.91;77.07;98471.19;4115548;28;20214;-47
2023/07/31 00:18:18;;;;;;;5.28;1.63;;;;;;;17.92;77.24;98467.31;4125113;28;20221;-47
2023/07/31 00:20:19;;;;;;;8.30;1.65;;;;;;;17.89;76.94;98473.41;4115943;28;20679;-47
2023/07/31 00:22:21;;;;;;;3.50;1.70;;;;;;;17.85;77.34;98472.38;4119555;28;20230;-47
2023/07/31 00:24:23;;;;;;;2.70;1.60;;;;;;;17.84;77.41;98476.28;4121855;28;20213;-47
2023/07/31 00:26:25;;;;;;;1.60;1.50;;;;;;;17.78;77.36;98472.75;4117612;28;20214;-47
2023/07/31 00:28:28;;;;;;;2.30;1.75;;;;;;;17.82;77.70;98473.81;4116476;28;20291;-47
2023/07/31 00:30:30;;;;;;;3.03;2.03;;;;;;;17.86;77.86;98463.75;4118871;28;20269;-47
2023/07/31 00:32:32;;;;;;;3.55;1.60;;;;;;;17.82;77.79;98461.88;4105912;28;20664;-47
2023/07/31 00:34:34;;;;;;;2.92;1.70;;;;;;;17.82;77.29;98467.44;4124469;28;20245;-47
2023/07/31 00:36:36;;;;;;;3.00;1.60;;;;;;;17.82;77.57;98459.13;4120260;28;20268;-47
2023/07/31 00:38:38;;;;;;;5.25;1.75;;;;;;;17.73;78.16;98458.16;4117243;28;20296;-47
2023/07/31 00:40:40;;;;;;;3.35;1.67;;;;;;;17.73;78.06;98458.16;4114870;28;20776;-47
2023/07/31 00:42:41;;;;;;;4.07;2.10;;;;;;;17.81;78.15;98455.56;4117741;28;20660;-47
2023/07/31 00:44:46;;;;;;;4.82;2.35;;;;;;;17.81;77.99;98463.03;4124804;28;20218;-47
2023/07/31 00:46:48;;;;;;;3.53;1.83;;;;;;;17.77;78.23;98464.72;4118584;28;20213;-47
2023/07/31 00:48:50;;;;;;;2.53;1.50;;;;;;;17.79;78.28;98466.06;4119259;28;20608;-47
2023/07/31 00:50:52;;;;;;;4.35;1.80;;;;;;;17.80;78.73;98470.47;4117269;28;20234;-47
2023/07/31 00:52:53;;;;;;;2.80;2.08;;;;;;;17.78;78.73;98461.66;4117275;28;20199;-47
2023/07/31 00:54:55;;;;;;;3.38;2.75;;;;;;;17.68;78.83;98458.22;4126029;28;20239;-47
2023/07/31 00:56:57;;;;;;;5.30;1.95;;;;;;;17.72;78.90;98468.38;4119136;28;20206;-47
2023/07/31 00:58:59;;;;;;;5.68;2.03;;;;;;;17.64;79.10;98473.78;4127306;28;20213;-47
2023/07/31 01:01:01;;;;;;;5.13;1.60;;;;;;;17.71;79.19;98466.75;4108723;28;20230;-47
2023/07/31 01:03:03;;;;;;;3.22;1.77;;;;;;;17.63;79.63;98458.28;4118707;28;20268;-47
2023/07/31 01:05:05;;;;;;;3.53;1.77;;;;;;;17.56;79.76;98466.13;4135703;28;20648;-47
2023/07/31 01:07:11;;;;;;;3.60;1.58;;;;;;;17.53;79.91;98462.00;4126027;28;20580;-48
2023/07/31 01:09:20;;;;;;;3.08;1.80;;;;;;;17.55;79.69;98461.69;4105534;28;20674;-48
2023/07/31 01:11:27;;;;;;;3.22;1.60;;;;;;;17.62;79.89;98462.16;4124456;28;20241;-47
2023/07/31 01:13:29;;;;;;;4.53;1.52;;;;;;;17.73;79.37;98458.16;4119625;28;20256;-47
2023/07/31 01:15:31;;;;;;;3.30;1.55;;;;;;;17.67;79.54;98453.81;4126081;28;20748;-47
2023/07/31 01:17:33;;;;;;;5.05;1.90;;;;;;;17.60;79.53;98447.81;4128039;28;20744;-47
2023/07/31 01:19:35;;;;;;;3.17;1.80;;;;;;;17.51;80.10;98439.34;4118236;28;20246;-46
2023/07/31 01:21:36;;;;;;;2.85;1.75;;;;;;;17.56;79.53;98430.97;4120779;28;20237;-47
2023/07/31 01:23:50;;;;;;;3.55;2.13;;;;;;;17.50;79.79;98437.69;4128530;28;20206;-48
2023/07/31 01:25:57;;;;;;;5.15;1.88;;;;;;;17.57;79.82;98440.09;4123646;28;20206;-47
2023/07/31 01:28:03;;;;;;;4.50;1.90;;;;;;;17.49;80.40;98437.97;4123601;28;20236;-47
2023/07/31 01:30:14;;;;;;;4.60;2.15;;;;;;;17.47;80.71;98437.47;4117237;28;20839;-47
2023/07/31 01:32:18;;;;;;;2.50;1.58;;;;;;;17.37;81.19;98432.88;4113550;28;20213;-47
2023/07/31 01:34:21;;;;;;;5.07;1.98;;;;;;;17.37;81.29;98432.88;4125481;28;20211;-47
2023/07/31 01:36:23;;;;;;;3.92;1.85;;;;;;;17.28;82.11;98433.78;4120537;28;20214;-47
2023/07/31 01:38:25;;;;;;;6.38;1.92;;;;;;;17.26;82.25;98430.50;4121875;28;20763;-48
2023/07/31 01:40:26;;;;;;;3.15;2.35;;;;;;;17.18;82.81;98429.19;4110105;28;20222;-47
2023/07/31 01:42:28;;;;;;;5.18;2.20;;;;;;;17.20;82.74;98431.69;4134577;28;20221;-48
2023/07/31 01:44:30;;;;;;;5.45;2.58;;;;;;;17.08;83.54;98427.69;4120517;28;20305;-47
2023/07/31 01:46:32;;;;;;;2.50;1.45;;;;;;;17.09;83.63;98432.91;4127604;28;20647;-47
2023/07/31 01:48:36;;;;;;;3.35;1.77;;;;;;;17.01;84.29;98433.56;4121091;28;20208;-47
2023/07/31 01:50:38;;;;;;;3.17;2.03;;;;;;;17.01;84.23;98428.03;4119419;28;20265;-47
2023/07/31 01:52:40;;;;;;;4.43;1.85;;;;;;;17.03;84.32;98425.78;4134790;28;20205;-47
2023/07/31 01:54:41;;;;;;;2.95;1.80;;;;;;;17.05;84.36;98426.34;4119132;28;20285;-47
2023/07/31 01:56:43;;;;;;;3.15;1.67;;;;;;;17.04;84.56;98417.19;4122868;28;20207;-47
2023/07/31 01:58:45;;;;;;;5.28;2.03;;;;;;;17.09;84.25;98419.09;4124109;28;20269;-47
2023/07/31 02:00:46;;;;;;;7.15;2.17;;;;;;;16.97;84.90;98412.31;4120117;28;20230;-47
2023/07/31 02:02:48;;;;;;;4.95;1.52;;;;;;;16.97;84.79;98404.84;4126759;28;20233;-48
2023/07/31 02:04:50;;;;;;;5.38;1.73;;;;;;;17.06;84.72;98405.84;4134913;28;20241;-47
2023/07/31 02:06:52;;;;;;;3.25;1.48;;;;;;;17.05;84.84;98415.28;4103687;28;20219;-48
2023/07/31 02:08:54;;;;;;;3.13;1.85;;;;;;;17.08;84.86;98400.84;4118874;28;20210;-47
2023/07/31 02:10:56;;;;;;;2.70;1.70;;;;;;;16.99;85.15;98403.44;4125711;28;20237;-47
2023/07/31 02:12:58;;;;;;;2.70;1.58;;;;;;;16.94;85.41;98410.97;4120842;28;20216;-48
2023/07/31 02:14:59;;;;;;;4.95;1.95;;;;;;;17.00;85.52;98398.75;4121431;28;20261;-49
2023/07/31 02:17:01;;;;;;;1.90;1.50;;;;;;;17.05;85.10;98398.69;4118575;28;20257;-47
2023/07/31 02:19:03;;;;;;;7.45;2.35;;;;;;;16.83;85.89;98392.84;4133257;28;20206;-47
2023/07/31 02:21:08;;;;;;;6.70;2.13;;;;;;;16.84;86.38;98391.72;4103150;28;20227;-46
2023/07/31 02:23:09;;;;;;;7.88;1.60;;;;;;;16.85;86.45;98381.50;4118109;28;20285;-47
2023/07/31 02:25:11;;;;;;;2.42;2.17;;;;;;;16.81;86.75;98389.56;4111954;28;20210;-47
2023/07/31 02:27:13;;;;;;;3.72;1.75;;;;;;;16.86;86.04;98383.97;4137367;28;20202;-47
2023/07/31 02:29:17;;;;;;;5.75;1.80;;;;;;;16.88;86.32;98384.50;4126713;28;20284;-47
2023/07/31 02:31:19;;;;;;;3.90;1.80;;;;;;;16.82;86.30;98391.19;4123207;28;20229;-47
2023/07/31 02:33:23;;;;;;;4.25;1.65;;;;;;;16.85;85.93;98390.63;4125087;28;20218;-47
2023/07/31 02:35:25;;;;;;;3.75;1.50;;;;;;;16.84;86.70;98394.47;4123549;28;20547;-47
2023/07/31 02:37:28;;;;;;;3.97;1.50;;;;;;;16.69;87.16;98391.88;4121582;28;20210;-48
2023/07/31 02:39:30;;;;;;;2.20;1.40;;;;;;;16.66;87.29;98389.72;4126181;28;20241;-47
2023/07/31 02:41:32;;;;;;;3.13;1.50;;;;;;;16.77;87.14;98391.25;4126461;28;20230;-47
2023/07/31 02:43:33;;;;;;;2.50;1.45;;;;;;;16.80;87.20;98393.44;4121089;28;20760;-47
2023/07/31 02:45:35;;;;;;;3.55;1.35;;;;;;;16.69;87.42;98391.88;4119235;28;20215;-47
2023/07/31 02:47:37;;;;;;;4.70;1.60;;;;;;;16.59;88.78;98403.06;4116496;28;20293;-47
2023/07/31 02:49:39;;;;;;;3.65;1.92;;;;;;;16.55;88.43;98403.94;4103885;28;20231;-47
2023/07/31 02:51:41;;;;;;;4.97;2.10;;;;;;;16.51;88.95;98403.69;4124205;28;20238;-47
2023/07/31 02:53:42;;;;;;;3.00;2.10;;;;;;;16.39;89.36;98403.25;4117560;28;20306;-48
2023/07/31 02:55:44;;;;;;;4.38;1.77;;;;;;;16.54;89.00;98400.34;4125320;28;20667;-48
2023/07/31 02:57:47;;;;;;;3.45;1.30;;;;;;;16.48;89.39;98398.72;4126244;28;20672;-47
2023/07/31 02:59:48;;;;;;;5.65;1.92;;;;;;;16.49;88.83;98394.03;4126685;28;20210;-47
2023/07/31 03:01:50;;;;;;;2.38;1.20;;;;;;;16.54;89.15;98394.81;4135421;28;20221;-47
2023/07/31 03:03:52;;;;;;;5.30;1.55;;;;;;;16.48;89.44;98395.13;4126057;28;20218;-47
2023/07/31 03:05:54;;;;;;;4.65;1.63;;;;;;;16.40;90.14;98393.00;4127457;28;20214;-47
2023/07/31 03:07:55;;;;;;;3.15;2.13;;;;;;;16.37;90.04;98388.84;4128927;28;20233;-48
2023/07/31 03:09:57;;;;;;;5.60;1.95;;;;;;;16.34;90.34;98394.97;4123076;28;20206;-47
2023/07/31 03:11:59;;;;;;;2.97;1.50;;;;;;;16.36;90.40;98387.22;4132415;28;20256;-48
2023/07/31 03:14:00;;;;;;;3.88;1.50;;;;;;;16.45;90.13;98388.28;4127400;28;20212;-48
2023/07/31 03:16:02;;;;;;;3.55;1.80;;;;;;;16.56;89.90;98380.72;4127490;28;20224;-47
2023/07/31 03:18:04;;;;;;;4.65;1.63;;;;;;;16.40;90.27;98388.31;4118022;28;20202;-47
2023/07/31 03:20:06;;;;;;;6.97;1.92;;;;;;;16.47;89.80;98397.09;4124418;28;20229;-48
2023/07/31 03:22:08;;;;;;;8.45;1.90;;;;;;;16.59;89.40;98403.06;4120735;28;20669;-47
2023/07/31 03:24:11;;;;;;;3.38;1.42;;;;;;;16.48;89.86;98401.50;4127455;28;20301;-47
2023/07/31 03:26:13;;;;;;;4.32;1.88;;;;;;;16.53;89.65;98404.22;4116654;28;20795;-47
2023/07/31 03:28:15;;;;;;;4.85;2.33;;;;;;;16.53;90.02;98404.22;4120759;28;20236;-47
2023/07/31 03:30:17;;;;;;;3.72;1.80;;;;;;;16.60;89.83;98410.22;4118500;28;20669;-47
2023/07/31 03:32:19;;;;;;;4.88;1.75;;;;;;;16.49;89.87;98405.91;4118876;28;20266;-47
2023/07/31 03:34:20;;;;;;;5.25;1.88;;;;;;;16.57;89.66;98402.50;4120536;28;20210;-48
2023/07/31 03:36:22;;;;;;;3.17;1.45;;;;;;;16.50;89.68;98399.25;4104959;28;20206;-48
2023/07/31 03:38:24;;;;;;;5.65;2.05;;;;;;;16.50;89.61;98396.50;4124339;28;20221;-47
2023/07/31 03:40:26;;;;;;;3.13;1.52;;;;;;;16.45;89.97;98393.81;4115341;28;20594;-48
2023/07/31 03:42:27;;;;;;;3.10;1.85;;;;;;;16.36;90.47;98395.50;4105721;28;20305;-48
2023/07/31 03:44:29;;;;;;;2.90;1.75;;;;;;;16.27;91.38;98394.47;4101550;28;20210;-47
2023/07/31 03:46:31;;;;;;;3.13;2.20;;;;;;;16.28;91.09;98389.75;4120309;28;20221;-48
2023/07/31 03:48:33;;;;;;;4.15;2.10;;;;;;;16.35;90.71;98391.09;4102271;28;20203;-48
2023/07/31 03:50:35;;;;;;;7.40;2.15;;;;;;;16.35;90.53;98385.56;4118534;28;20230;-47
2023/07/31 03:52:36;;;;;;;5.57;1.60;;;;;;;16.42;90.56;98386.06;4130273;28;20640;-47
2023/07/31 03:54:38;;;;;;;2.72;1.58;;;;;;;16.46;90.54;98395.44;4125559;28;20213;-47
2023/07/31 03:56:40;;;;;;;2.97;1.90;;;;;;;16.51;90.18;98389.88;4103618;28;20207;-47
2023/07/31 03:58:42;;;;;;;3.40;1.60;;;;;;;16.52;90.37;98391.53;4118508;28;20245;-47
2023/07/31 04:00:44;;;;;;;3.75;1.75;;;;;;;16.54;90.06;98389.28;4120551;28;20234;-48
2023/07/31 04:02:45;;;;;;;5.78;1.90;;;;;;;16.51;89.97;98389.03;4125719;28;20234;-48
2023/07/31 04:04:47;;;;;;;3.88;2.00;;;;;;;16.42;90.68;98386.06;4117242;28;20239;-48
2023/07/31 04:06:52;;;;;;;3.60;2.10;;;;;;;16.46;90.63;98386.31;4134296;28;20212;-48
2023/07/31 04:08:54;;;;;;;2.33;1.77;;;;;;;16.46;90.27;98392.69;4134430;28;20708;-49
2023/07/31 04:10:55;;;;;;;5.85;1.98;;;;;;;16.55;90.47;98401.97;4120250;28;20887;-48
2023/07/31 04:12:57;;;;;;;6.93;1.80;;;;;;;16.54;90.14;98389.28;4116376;28;20207;-48
2023/07/31 04:14:59;;;;;;;5.95;1.98;;;;;;;16.59;90.62;98385.63;4120424;28;20269;-47
2023/07/31 04:17:00;;;;;;;3.63;1.70;;;;;;;16.60;90.43;98382.59;4119311;28;20358;-47
2023/07/31 04:19:03;;;;;;;4.57;2.08;;;;;;;16.57;90.22;98377.63;4134200;28;20240;-48
2023/07/31 04:21:05;;;;;;;2.22;1.80;;;;;;;16.52;89.98;98372.19;4124302;28;20292;-48
2023/07/31 04:23:06;;;;;;;3.60;2.22;;;;;;;16.47;90.44;98382.44;4124291;28;20280;-48
2023/07/31 04:25:08;;;;;;;3.45;1.67;;;;;;;16.63;90.10;98367.38;4118518;28;20214;-47
2023/07/31 04:27:10;;;;;;;3.00;1.88;;;;;;;16.53;89.93;98371.06;4116101;28;20210;-47
2023/07/31 04:29:11;;;;;;;3.15;1.80;;;;;;;16.27;91.71;98383.44;4135111;28;20213;-48
2023/07/31 04:31:16;;;;;;;3.90;1.50;;;;;;;16.43;91.04;98376.66;4123249;28;20236;-47
2023/07/31 04:33:19;;;;;;;2.42;1.73;;;;;;;16.36;91.59;98375.34;4121599;28;20612;-47
2023/07/31 04:35:21;;;;;;;4.32;2.17;;;;;;;16.36;91.48;98370.63;4127251;28;20615;-48
2023/07/31 04:37:22;;;;;;;2.90;2.10;;;;;;;16.18;92.39;98368.63;4121067;28;20217;-47
2023/07/31 04:39:24;;;;;;;5.72;2.42;;;;;;;16.25;91.94;98374.63;4106405;28;20305;-47
2023/07/31 04:41:26;;;;;;;3.97;2.00;;;;;;;16.29;91.71;98370.16;4118859;28;20265;-47
2023/07/31 04:43:28;;;;;;;5.10;2.05;;;;;;;16.22;92.24;98368.84;4128431;28;20234;-47
2023/07/31 04:45:30;;;;;;;4.30;2.15;;;;;;;16.15;92.59;98371.94;4122055;28;20976;-47
2023/07/31 04:47:31;;;;;;;7.57;2.45;;;;;;;16.10;92.89;98365.66;4124216;28;20214;-47
2023/07/31 04:49:33;;;;;;;4.07;2.17;;;;;;;16.14;92.50;98367.53;4121180;28;20214;-47
2023/07/31 04:51:35;;;;;;;3.30;1.83;;;;;;;16.06;92.85;98365.41;4120703;28;20229;-47
2023/07/31 04:53:36;;;;;;;4.03;2.58;;;;;;;16.21;92.37;98368.03;4121045;28;20201;-47
2023/07/31 04:55:38;;;;;;;5.90;1.83;;;;;;;16.19;92.51;98367.50;4106417;28;20731;-47
2023/07/31 04:57:40;;;;;;;4.60;1.65;;;;;;;16.30;92.17;98365.47;4123484;28;20210;-47
2023/07/31 04:59:42;;;;;;;6.45;1.83;;;;;;;16.24;92.27;98367.44;4127685;28;20218;-47
2023/07/31 05:01:45;;;;;;;5.82;1.95;;;;;;;16.17;92.60;98372.47;4135424;28;20244;-46
2023/07/31 05:03:47;;;;;;;4.85;1.88;;;;;;;16.20;92.71;98371.91;4122907;28;20230;-47
2023/07/31 05:05:50;;;;;;;3.20;2.45;;;;;;;16.34;92.41;98381.16;4128598;28;20213;-47
2023/07/31 05:07:51;;;;;;;5.65;1.92;;;;;;;16.30;92.49;98371.00;4121727;28;20716;-47
2023/07/31 05:09:53;;;;;;;5.07;1.70;;;;;;;16.47;91.47;98366.69;4123518;28;20217;-47
2023/07/31 05:11:58;;;;;;;3.70;1.90;;;;;;;16.53;91.67;98370.22;4122944;28;20738;-48
2023/07/31 05:14:00;;;;;;;3.45;2.00;;;;;;;16.65;91.53;98359.59;4112723;28;20213;-47
2023/07/31 05:16:01;;;;;;;4.25;1.83;;;;;;;16.35;92.18;98357.94;4109260;28;20260;-47
2023/07/31 05:18:07;;;;;;;3.38;1.98;;;;;;;16.32;92.52;98364.06;4127485;28;20214;-47
2023/07/31 05:20:09;;;;;;;2.60;1.48;;;;;;;16.34;92.77;98361.81;4121129;28;20289;-48
2023/07/31 05:22:11;;;;;;;2.72;1.90;;;;;;;16.33;92.69;98357.41;4120604;28;20224;-47
2023/07/31 05:24:12;;;;;;;5.70;1.80;;;;;;;16.29;92.88;98364.63;4119714;28;20719;-47
2023/07/31 05:26:14;;;;;;;3.33;1.75;;;;;;;16.26;93.03;98367.97;4126008;28;20723;-48
2023/07/31 05:28:21;;;;;;;2.10;1.80;;;;;;;16.43;92.86;98348.25;4120199;28;20665;-48
2023/07/31 05:30:23;;;;;;;3.45;1.73;;;;;;;16.37;92.98;98365.94;4111036;28;20238;-47
2023/07/31 05:32:25;;;;;;;5.07;1.55;;;;;;;16.45;92.58;98360.66;4122086;28;20216;-47
2023/07/31 05:34:27;;;;;;;3.90;1.50;;;;;;;16.50;92.62;98355.06;4127707;28;20695;-47
2023/07/31 05:36:28;;;;;;;5.22;1.98;;;;;;;16.43;92.34;98357.34;4123163;28;20428;-47
2023/07/31 05:38:30;;;;;;;2.90;1.38;;;;;;;16.59;91.77;98347.78;4127187;28;20370;-47
2023/07/31 05:40:33;;;;;;;3.50;1.85;;;;;;;16.59;92.02;98346.97;4119074;28;20233;-47
2023/07/31 05:42:36;;;;;;;3.45;1.65;;;;;;;16.63;92.53;98346.06;4127117;28;20218;-47
2023/07/31 05:44:38;;;;;;;4.45;1.40;;;;;;;16.72;91.62;98333.28;4120773;28;20277;-47
2023/07/31 05:46:40;;;;;;;5.47;1.65;;;;;;;16.47;93.01;98330.78;4135826;28;20210;-47
2023/07/31 05:48:42;;;;;;;5.05;1.80;;;;;;;16.65;92.40;98338.34;4119192;28;20328;-48
2023/07/31 05:50:44;;;;;;;4.47;1.80;;;;;;;16.58;93.19;98340.63;4120046;28;20303;-48
2023/07/31 05:52:46;;;;;;;3.25;1.80;;;;;;;16.76;92.05;98336.28;4106473;28;20913;-48
2023/07/31 05:54:47;;;;;;;5.40;1.95;;;;;;;16.58;92.97;98329.56;4120161;28;20202;-47
2023/07/31 05:56:49;;;;;;;4.40;1.85;;;;;;;16.56;93.46;98331.78;4126367;28;20257;-48
2023/07/31 05:58:51;;;;;;;2.92;1.83;;;;;;;16.62;92.77;98335.34;4126944;28;20622;-47
2023/07/31 06:00:52;;;;;;;2.95;1.50;;;;;;;16.70;92.23;98329.97;4122526;28;20344;-47
2023/07/31 06:02:54;;;;;;;3.22;1.80;;;;;;;16.76;92.36;98328.00;4119933;28;20689;-47
2023/07/31 06:04:56;;;;;;;3.05;1.70;;;;;;;16.77;92.60;98329.63;4120937;28;20222;-48
2023/07/31 06:06:58;;;;;;;5.68;2.03;;;;;;;16.84;92.09;98336.44;4123526;28;20624;-48
2023/07/31 06:09:00;;;;;;;5.43;1.90;;;;;;;16.80;92.86;98326.25;4118774;28;20260;-47
2023/07/31 06:11:02;;;;;;;3.42;1.70;;;;;;;16.88;92.09;98334.75;4132286;28;20226;-47
2023/07/31 06:13:04;;;;;;;2.97;1.40;;;;;;;16.98;92.03;98334.63;4119555;28;20207;-47
2023/07/31 06:15:06;;;;;;;3.22;2.47;;;;;;;16.99;92.51;98336.28;4126955;28;20212;-47
2023/07/31 06:17:08;;;;;;;3.28;2.08;;;;;;;16.93;92.02;98331.91;4118791;28;20669;-47
2023/07/31 06:19:10;;;;;;;3.33;1.50;;;;;;;16.94;92.55;98333.56;4120470;28;20213;-47
2023/07/31 06:21:12;;;;;;;4.00;2.13;;;;;;;16.87;92.68;98340.56;4125672;28;20316;-47
2023/07/31 06:23:13;;;;;;;1.75;1.48;;;;;;;16.90;92.58;98338.03;4118682;28;20254;-47
2023/07/31 06:25:15;;;;;;;2.28;1.70;;;;;;;16.95;92.32;98339.94;4125011;28;20206;-47
2023/07/31 06:27:17;;;;;;;2.97;1.77;;;;;;;16.87;92.74;98333.09;4127143;28;20224;-47
2023/07/31 06:29:19;;;;;;;5.97;2.10;;;;;;;17.00;92.27;98333.19;4116568;28;20210;-47
2023/07/31 06:31:22;;;;;;;4.88;2.20;;;;;;;17.10;92.92;98337.75;4110250;28;20238;-48
2023/07/31 06:33:25;;;;;;;3.10;2.40;;;;;;;17.16;92.30;98336.59;4108750;28;20536;-47
2023/07/31 06:35:26;;;;;;;3.95;2.13;;;;;;;17.42;91.69;98343.44;4124913;28;20210;-47
2023/07/31 06:37:28;;;;;;;2.75;1.70;;;;;;;17.52;90.63;98337.78;4117348;28;20214;-48
2023/07/31 06:39:30;;;;;;;3.45;1.95;;;;;;;17.58;90.69;98333.81;4126679;28;20213;-47
2023/07/31 06:41:31;;;;;;;4.78;1.90;;;;;;;17.60;89.66;98326.84;4120238;28;20639;-47
2023/07/31 06:43:33;;;;;;;2.20;1.50;;;;;;;17.74;89.66;98330.53;4116253;28;20215;-47
2023/07/31 06:45:37;;;;;;;3.10;1.70;;;;;;;17.71;89.25;98327.53;4124247;28;20203;-47
2023/07/31 06:47:39;;;;;;;3.33;1.70;;;;;;;17.76;89.53;98331.03;4115265;28;20214;-47
2023/07/31 06:49:41;;;;;;;4.32;2.10;;;;;;;17.88;89.42;98327.81;4104169;28;21276;-47
2023/07/31 06:51:44;;;;;;;5.57;1.40;;;;;;;17.94;88.88;98321.91;4118428;28;20739;-47
2023/07/31 06:53:45;;;;;;;4.00;1.90;;;;;;;17.94;88.92;98326.59;4117252;28;20274;-47
2023/07/31 06:55:48;;;;;;;2.58;1.67;;;;;;;18.05;87.93;98328.09;4104460;28;20214;-47
2023/07/31 06:57:51;;;;;;;7.07;2.63;;;;;;;18.11;88.05;98329.66;4126685;28;20251;-48
2023/07/31 06:59:53;;;;;;;4.47;2.22;;;;;;;18.19;88.07;98334.50;4123987;28;20605;-47
2023/07/31 07:01:55;;;;;;;3.17;1.70;;;;;;;18.35;87.15;98322.03;4117321;28;20214;-47
2023/07/31 07:03:57;;;;;;;8.77;2.53;;;;;;;18.51;87.12;98331.72;4126027;28;20312;-47
2023/07/31 07:05:58;;;;;;;3.53;1.80;;;;;;;18.55;86.53;98332.75;4118722;28;20345;-48
2023/07/31 07:08:00;;;;;;;6.15;1.77;;;;;;;18.60;86.49;98336.25;4120518;28;20209;-47
2023/07/31 07:10:03;;;;;;;3.47;2.13;;;;;;;18.84;86.06;98327.75;4115597;28;20211;-47
2023/07/31 07:12:05;;;;;;;7.07;1.88;;;;;;;18.87;84.10;98324.34;4124455;28;20210;-46
2023/07/31 07:14:07;;;;;;;3.40;1.70;;;;;;;18.84;85.01;98323.00;4124896;28;20206;-47
2023/07/31 07:16:10;;;;;;;2.78;1.65;;;;;;;18.96;84.02;98316.94;4115802;28;20234;-46
2023/07/31 07:18:12;;;;;;;2.97;1.58;;;;;;;18.84;84.63;98311.13;4119578;28;20210;-48
2023/07/31 07:20:13;;;;;;;3.60;1.92;;;;;;;18.84;84.54;98305.56;4120164;28;20232;-47
2023/07/31 07:22:15;;;;;;;2.90;1.35;;;;;;;18.86;84.20;98311.63;4119324;28;20616;-46
2023/07/31 07:24:17;;;;;;;4.30;2.10;;;;;;;18.73;85.41;98312.44;4120366;28;20226;-47
2023/07/31 07:26:19;;;;;;;3.30;2.05;;;;;;;18.65;84.49;98308.41;4118972;28;20218;-47
2023/07/31 07:28:20;;;;;;;2.38;1.83;;;;;;;18.89;85.31;98322.09;4126014;28;20214;-47
2023/07/31 07:30:24;;;;;;;4.93;2.28;;;;;;;18.76;83.91;98306.25;4119284;28;20238;-46
2023/07/31 07:32:26;;;;;;;2.63;1.48;;;;;;;18.87;85.17;98307.72;4117443;28;20225;-47
2023/07/31 07:34:28;;;;;;;3.25;1.98;;;;;;;18.79;84.29;98306.47;4120458;28;20807;-47
2023/07/31 07:36:32;;;;;;;5.38;1.70;;;;;;;18.75;85.07;98304.63;4124952;28;20654;-46
2023/07/31 07:38:34;;;;;;;7.15;2.38;;;;;;;18.61;84.70;98315.72;4122126;28;20245;-46
2023/07/31 07:40:39;;;;;;;4.03;1.90;;;;;;;18.71;85.51;98300.84;4126578;28;20226;-48
2023/07/31 07:42:41;;;;;;;3.05;1.80;;;;;;;18.65;84.09;98310.38;4116193;28;21004;-47
2023/07/31 07:44:43;;;;;;;3.63;1.40;;;;;;;18.77;84.65;98302.38;4118181;28;20230;-46
2023/07/31 07:46:44;;;;;;;4.13;1.73;;;;;;;18.95;84.78;98310.59;4120872;28;20237;-47
2023/07/31 07:48:46;;;;;;;7.05;2.30;;;;;;;19.03;83.76;98312.63;4125303;28;20214;-47
2023/07/31 07:50:49;;;;;;;4.38;1.98;;;;;;;19.19;84.28;98302.84;4110271;28;20308;-46
2023/07/31 07:52:51;;;;;;;3.42;1.95;;;;;;;19.14;82.89;98307.69;4125790;28;20216;-47
2023/07/31 07:54:52;;;;;;;6.40;1.92;;;;;;;19.33;83.58;98300.09;4118598;28;20237;-47
2023/07/31 07:56:54;;;;;;;4.55;1.85;;;;;;;19.37;81.28;98301.13;4119286;28;20202;-46
2023/07/31 07:58:56;;;;;;;3.53;1.90;;;;;;;19.50;81.66;98305.78;4133451;28;20217;-46
2023/07/31 08:00:57;;;;;;;4.00;2.08;;;;;;;19.51;81.73;98296.34;4124107;28;20853;-46
2023/07/31 08:02:59;;;;;;;2.83;2.17;;;;;;;19.42;81.88;98299.03;4125746;28;20285;-46
2023/07/31 08:05:01;;;;;;;3.05;1.92;;;;;;;19.47;81.94;98300.88;4118192;28;20226;-46
2023/07/31 08:07:03;;;;;;;5.05;1.98;;;;;;;19.48;81.79;98296.97;4116686;28;20214;-47
2023/07/31 08:09:06;;;;;;;6.78;1.92;;;;;;;19.38;82.00;98291.66;4117822;28;20269;-46
2023/07/31 08:11:08;;;;;;;8.77;2.15;;;;;;;19.06;81.69;98284.25;4117589;28;20230;-46
2023/07/31 08:13:12;;;;;;;4.35;1.95;;;;;;;19.09;81.70;98274.50;4118863;28;20257;-46
2023/07/31 08:15:14;;;;;;;2.42;1.85;;;;;;;19.12;82.16;98276.69;4117818;28;20565;-47
2023/07/31 08:17:16;;;;;;;5.22;2.10;;;;;;;19.03;81.90;98272.97;4101685;28;21117;-46
2023/07/31 08:19:17;;;;;;;3.45;2.03;;;;;;;19.12;82.18;98257.25;4117094;28;20622;-47
2023/07/31 08:21:20;;;;;;;4.60;1.85;;;;;;;19.19;81.88;98268.75;4123186;28;20868;-46
2023/07/31 08:23:22;;;;;;;4.50;1.83;;;;;;;19.23;82.41;98269.78;4124823;28;20240;-47
2023/07/31 08:25:23;;;;;;;5.82;2.25;;;;;;;19.39;82.56;98262.78;4117971;28;20230;-48
2023/07/31 08:27:25;;;;;;;3.28;1.80;;;;;;;19.62;81.50;98270.81;4137567;28;20267;-46
2023/07/31 08:29:27;;;;;;;3.55;2.03;;;;;;;19.64;79.99;98268.53;4125816;28;22294;-45
2023/07/31 08:31:29;;;;;;;2.40;1.42;;;;;;;19.93;80.29;98259.75;4125074;28;20241;-46
2023/07/31 08:33:31;;;;;;;2.10;1.40;;;;;;;19.73;78.18;98265.84;4115693;28;20664;-48
2023/07/31 08:35:33;;;;;;;3.10;1.40;;;;;;;19.84;79.37;98265.25;4108409;28;20214;-46
2023/07/31 08:37:35;;;;;;;3.13;2.13;;;;;;;19.87;78.86;98261.88;4121342;28;20213;-47
2023/07/31 08:39:39;;;;;;;1.60;1.27;;;;;;;19.94;78.63;98253.06;4118291;28;20210;-46
2023/07/31 08:41:41;;;;;;;2.70;1.60;;;;;;;20.07;77.46;98249.44;4119340;28;20313;-46
2023/07/31 08:43:44;;;;;;;4.35;1.80;;;;;;;20.11;77.48;98236.56;4124854;28;20212;-45
2023/07/31 08:45:47;;;;;;;13.80;1.70;;;;;;;20.06;78.16;98236.69;4116506;28;20240;-47
2023/07/31 08:47:50;;;;;;;1.95;1.40;;;;;;;20.14;77.10;98222.00;4103371;28;20241;-47
2023/07/31 08:49:52;;;;;;;3.90;1.58;;;;;;;20.30;77.28;98237.16;4130573;28;20210;-47
2023/07/31 08:51:55;;;;;;;2.75;2.05;;;;;;;20.58;75.88;98227.47;4115669;28;20210;-46
2023/07/31 08:53:57;;;;;;;2.38;2.00;;;;;;;20.65;75.11;98225.03;4123510;28;20202;-46
2023/07/31 08:55:59;;;;;;;4.55;1.73;;;;;;;21.08;74.95;98226.81;4114020;28;20233;-46
2023/07/31 08:58:02;;;;;;;2.22;1.30;;;;;;;20.90;73.76;98235.44;4115746;28;20211;-47
2023/07/31 09:00:06;;;;;;;5.15;1.88;;;;;;;20.81;74.35;98237.34;4124069;28;20652;-46
2023/07/31 09:02:08;;;;;;;2.30;1.50;;;;;;;20.55;74.19;98233.66;4133007;28;20214;-46
2023/07/31 09:04:10;;;;;;;3.55;1.88;;;;;;;20.41;75.05;98239.31;4124005;28;20209;-47
2023/07/31 09:06:13;;;;;;;4.97;2.50;;;;;;;20.47;75.81;98245.56;4132817;28;20216;-46
2023/07/31 09:08:18;;;;;;;3.17;1.75;;;;;;;20.60;75.52;98236.28;4115349;28;20707;-47
2023/07/31 09:10:20;;;;;;;2.78;2.25;;;;;;;20.53;76.40;98238.72;4116513;28;20237;-47
2023/07/31 09:12:22;;;;;;;3.63;2.15;;;;;;;20.77;75.10;98250.28;4117798;28;20268;-47
2023/07/31 09:14:25;;;;;;;4.50;1.77;;;;;;;20.91;74.13;98248.22;4118433;28;20221;-47
2023/07/31 09:16:30;;;;;;;3.28;1.55;;;;;;;20.98;73.00;98248.56;4122588;28;20261;-46
2023/07/31 09:18:32;;;;;;;3.15;1.50;;;;;;;20.73;72.71;98252.03;4128805;28;20201;-46
2023/07/31 09:20:34;;;;;;;3.97;2.42;;;;;;;20.71;73.12;98240.44;4106563;28;20277;-47
2023/07/31 09:22:35;;;;;;;3.70;1.98;;;;;;;20.73;73.93;98229.78;4134755;28;20216;-46
2023/07/31 09:24:37;;;;;;;4.97;3.47;;;;;;;20.81;72.82;98218.69;4135473;28;20236;-47
2023/07/31 09:26:39;;;;;;;11.10;3.08;;;;;;;20.92;73.20;98239.53;4136957;28;20244;-46
2023/07/31 09:28:41;;;;;;;4.78;1.60;;;;;;;20.78;72.38;98235.22;4127843;28;20209;-48
2023/07/31 09:30:51;;;;;;;5.32;1.85;;;;;;;20.65;72.24;98231.38;4119669;28;20236;-47
2023/07/31 09:33:02;;;;;;;3.88;2.30;;;;;;;21.06;71.87;98231.06;4121170;28;20279;-46
2023/07/31 09:35:22;;;;;;;2.63;1.98;;;;;;;21.41;69.96;98232.72;4117737;28;20711;-46